Time;durP1;ratioP1;P1;durP2;ratioP2;P2;SDS_P1;SDS_P2;PMS_P1;PMS_P2;Temp;Humidity;BMP_temperature;BMP_pressure;BME280_temperature;BME280_humidity;BME280_pressure;Samples;Min_cycle;Max_cycle;Signal;HPM_P1;HPM_P2
2023/12/14 00:12:25;;;;;;;;;;;;;;;9.07;78.18;98838.53;1088620;46;877;-82
2023/12/14 00:14:15;;;;;;;;;;;;;;;9.09;77.96;98839.22;1088758;46;982;-82
2023/12/14 00:22:45;;;;;;;;;;;;;;;;;;;;;
2023/12/14 01:56:55;;;;;;;;;;;;;;;8.94;78.66;98980.31;1090422;54;1279;-84
2023/12/14 01:57:59;;;;;;;;;;;;;;;8.98;78.49;98983.47;1090460;54;1023;-81
2023/12/14 02:01:59;;;;;;;;;;;;;;;9.16;78.27;98994.88;1090376;54;1042;-82
2023/12/14 02:03:00;;;;;;;;;;;;;;;9.13;78.18;98995.22;1090189;46;976;-81
2023/12/14 02:04:19;;;;;;;;;;;;;;;9.06;78.32;98999.53;1090332;46;1038;-81
2023/12/14 02:05:27;;;;;;;;;;;;;;;9.00;78.39;99001.00;1090334;46;975;-82
2023/12/14 02:36:44;;;;;;;;;;;;;;;9.25;77.55;99027.75;1090086;54;1227;-82
2023/12/14 05:57:48;;;;;;;;;;;;;;;8.72;81.55;99323.66;1088017;54;1195;-82
2023/12/14 05:58:59;;;;;;;;;;;;;;;8.72;81.74;99320.13;1087830;47;1265;-81
2023/12/14 06:00:10;;;;;;;;;;;;;;;8.73;81.32;99329.78;1087931;47;1138;-81
2023/12/14 06:01:18;;;;;;;;;;;;;;;8.76;81.32;99326.00;1088150;47;971;-81
2023/12/14 06:16:12;;;;;;;;;;;;;;;;;;;;;
2023/12/14 06:35:14;;;;;;;;;;;;;;;8.67;81.62;99383.69;1088266;47;947;-82
2023/12/14 06:36:17;;;;;;;;;;;;;;;8.66;81.51;99393.50;1088410;47;968;-81
2023/12/14 06:37:21;;;;;;;;;;;;;;;8.68;81.09;99383.53;1088670;54;1395;-83
2023/12/14 06:38:22;;;;;;;;;;;;;;;8.66;81.40;99403.34;1088474;47;963;-81
2023/12/14 06:39:28;;;;;;;;;;;;;;;8.67;81.67;99397.84;1088590;54;928;-83
2023/12/14 06:40:29;;;;;;;;;;;;;;;8.70;81.58;99394.91;1088642;47;1072;-83
2023/12/14 06:41:33;;;;;;;;;;;;;;;8.62;81.70;99397.47;1088597;54;929;-83
2023/12/14 06:42:34;;;;;;;;;;;;;;;8.61;81.75;99409.09;1088665;54;885;-83
2023/12/14 06:43:37;;;;;;;;;;;;;;;8.61;81.53;99417.09;1088575;54;1004;-83
2023/12/14 06:44:47;;;;;;;;;;;;;;;8.62;81.67;99412.59;1088558;47;1095;-81
2023/12/14 06:46:19;;;;;;;;;;;;;;;8.53;81.95;99417.81;1088529;47;892;-82
2023/12/14 06:47:19;;;;;;;;;;;;;;;8.51;81.94;99417.13;1088581;54;1324;-81
2023/12/14 06:48:26;;;;;;;;;;;;;;;8.41;82.27;99421.63;1088561;46;977;-80
2023/12/14 06:49:32;;;;;;;;;;;;;;;8.54;81.85;99426.69;1088665;47;1871;-82
2023/12/14 06:50:36;;;;;;;;;;;;;;;8.52;81.98;99426.81;1088594;54;1009;-82
2023/12/14 06:51:39;;;;;;;;;;;;;;;8.53;82.35;99425.81;1088533;47;987;-82
2023/12/14 06:52:55;;;;;;;;;;;;;;;8.61;82.18;99426.91;1088531;47;879;-81
2023/12/14 06:54:10;;;;;;;;;;;;;;;8.72;81.62;99424.91;1088565;54;977;-81
2023/12/14 06:55:17;;;;;;;;;;;;;;;8.82;81.28;99429.34;1088529;47;991;-82
2023/12/14 06:56:18;;;;;;;;;;;;;;;8.85;80.83;99435.22;1088462;54;996;-82
2023/12/14 06:57:28;;;;;;;;;;;;;;;8.84;81.22;99430.88;1088362;47;1448;-81
2023/12/14 06:58:29;;;;;;;;;;;;;;;8.86;80.89;99428.91;1088493;47;931;-82
2023/12/14 06:59:39;;;;;;;;;;;;;;;8.87;80.85;99430.59;1088610;54;955;-83
2023/12/14 07:36:22;;;;;;;;;;;;;;;8.99;80.61;99513.84;1919873;54;51152;-84
2023/12/14 08:04:23;;;;;;;;;;;;;;;9.07;79.78;99560.28;1089641;54;1202;-81
2023/12/14 08:05:24;;;;;;;;;;;;;;;9.09;80.02;99559.13;1090452;54;989;-81
2023/12/14 08:06:27;;;;;;;;;;;;;;;9.12;79.96;99564.19;1090432;54;1330;-81
2023/12/14 08:07:29;;;;;;;;;;;;;;;9.14;79.68;99566.69;1090125;46;1026;-81
2023/12/14 08:08:37;;;;;;;;;;;;;;;9.14;79.63;99570.22;1090155;46;889;-81
2023/12/14 08:09:38;;;;;;;;;;;;;;;9.21;79.51;99571.28;1090052;46;986;-81
2023/12/14 08:10:58;;;;;;;;;;;;;;;9.22;79.43;99569.44;1090087;46;980;-83
2023/12/14 08:12:00;;;;;;;;;;;;;;;9.28;79.38;99573.34;1090079;54;1849;-81
2023/12/14 08:13:03;;;;;;;;;;;;;;;9.29;79.19;99561.69;1090110;54;987;-81
2023/12/14 08:14:04;;;;;;;;;;;;;;;9.22;79.46;99569.44;1090244;54;1009;-82
2023/12/14 08:15:08;;;;;;;;;;;;;;;9.19;79.31;99570.59;1090078;54;1038;-81
2023/12/14 08:16:11;;;;;;;;;;;;;;;9.21;78.96;99570.44;1090052;46;919;-82
2023/12/14 08:17:14;;;;;;;;;;;;;;;9.18;78.61;99568.09;1090134;46;1396;-81
2023/12/14 08:18:15;;;;;;;;;;;;;;;9.08;79.01;99573.44;1089926;47;877;-82
2023/12/14 08:19:18;;;;;;;;;;;;;;;9.11;78.77;99577.66;1090039;46;942;-81
2023/12/14 08:20:22;;;;;;;;;;;;;;;9.07;78.89;99579.75;1089911;46;1014;-82
2023/12/14 08:21:26;;;;;;;;;;;;;;;8.98;79.35;99584.16;1090105;54;1009;-82
2023/12/14 08:22:27;;;;;;;;;;;;;;;9.03;79.15;99581.88;1089972;46;997;-83
2023/12/14 08:23:31;;;;;;;;;;;;;;;9.04;79.38;99586.22;1089991;54;1017;-82
2023/12/14 08:24:32;;;;;;;;;;;;;;;9.12;79.18;99587.31;1090037;46;1005;-81
2023/12/14 08:25:36;;;;;;;;;;;;;;;9.13;78.86;99581.00;1090038;46;987;-82
2023/12/14 08:26:37;;;;;;;;;;;;;;;9.11;79.20;99589.16;1089899;46;1394;-81
2023/12/14 08:27:38;;;;;;;;;;;;;;;9.04;79.05;99586.22;1089992;46;969;-80
2023/12/14 08:28:42;;;;;;;;;;;;;;;9.03;79.20;99594.38;1089898;47;1062;-82
2023/12/14 08:29:45;;;;;;;;;;;;;;;9.05;78.78;99592.41;1089944;46;899;-82
2023/12/14 08:30:48;;;;;;;;;;;;;;;8.98;79.06;99594.81;1089912;54;962;-80
2023/12/14 08:31:49;;;;;;;;;;;;;;;8.95;79.56;99600.44;1089991;46;942;-81
2023/12/14 08:33:04;;;;;;;;;;;;;;;8.95;79.31;99600.44;1089815;46;1835;-81
2023/12/14 08:34:05;;;;;;;;;;;;;;;8.89;79.38;99609.84;1089891;54;941;-82
2023/12/14 08:35:09;;;;;;;;;;;;;;;8.84;79.85;99606.78;1089869;54;930;-82
2023/12/14 08:36:19;;;;;;;;;;;;;;;8.95;79.71;99615.59;1089984;54;939;-80
2023/12/14 08:37:22;;;;;;;;;;;;;;;8.85;79.84;99619.13;1089977;46;935;-82
2023/12/14 08:38:24;;;;;;;;;;;;;;;8.89;79.64;99617.84;1089975;46;998;-82
2023/12/14 08:39:27;;;;;;;;;;;;;;;8.95;79.76;99615.59;1090030;54;1022;-82
2023/12/14 08:40:49;;;;;;;;;;;;;;;8.94;79.22;99622.75;1089859;47;958;-82
2023/12/14 08:41:53;;;;;;;;;;;;;;;8.93;79.70;99622.91;1090027;54;992;-81
2023/12/14 08:42:54;;;;;;;;;;;;;;;8.95;79.49;99627.09;1089976;47;887;-80
2023/12/14 08:43:55;;;;;;;;;;;;;;;9.02;79.65;99635.38;1088876;46;951;-81
2023/12/14 08:45:04;;;;;;;;;;;;;;;9.06;79.57;99636.78;1088554;54;1043;-81
2023/12/14 08:46:05;;;;;;;;;;;;;;;9.09;79.53;99644.47;1088456;47;980;-82
2023/12/14 08:47:09;;;;;;;;;;;;;;;9.11;79.53;99647.00;1088567;46;1258;-81
2023/12/14 08:48:10;;;;;;;;;;;;;;;9.17;79.29;99641.91;1088550;47;950;-81
2023/12/14 08:49:15;;;;;;;;;;;;;;;9.09;79.81;99644.47;1088662;46;943;-81
2023/12/14 08:50:16;;;;;;;;;;;;;;;9.08;79.44;99650.78;1088494;47;944;-80
2023/12/14 08:52:58;;;;;;;;;;;;;;;9.23;79.38;99650.31;1088480;47;1866;-81
2023/12/14 08:54:13;;;;;;;;;;;;;;;9.31;79.12;99653.09;1088498;54;926;-82
2023/12/14 08:56:06;;;;;;;;;;;;;;;;;;;;;
2023/12/14 08:57:39;;;;;;;;;;;;;;;9.27;78.81;99662.38;1088642;46;1311;-81
2023/12/14 08:59:05;;;;;;;;;;;;;;;;;;;;;
2023/12/14 09:03:17;;;;;;;;;;;;;;;9.24;78.96;99668.00;1088570;47;913;-82
2023/12/14 09:04:17;;;;;;;;;;;;;;;9.25;79.38;99667.84;1088517;46;992;-83
2023/12/14 09:05:21;;;;;;;;;;;;;;;9.26;79.20;99666.88;1088463;47;952;-82
2023/12/14 09:06:25;;;;;;;;;;;;;;;9.29;79.16;99679.06;1088502;54;1275;-81
2023/12/14 09:07:28;;;;;;;;;;;;;;;9.22;79.39;99678.81;1088512;47;1081;-80
2023/12/14 09:08:29;;;;;;;;;;;;;;;9.14;79.52;99684.88;1088572;46;1016;-82
2023/12/14 09:09:33;;;;;;;;;;;;;;;9.03;79.81;99687.72;1088594;47;1019;-82
2023/12/14 09:10:34;;;;;;;;;;;;;;;9.00;79.83;99690.66;1088474;54;957;-81
2023/12/14 09:11:58;;;;;;;;;;;;;;;8.90;80.24;99693.34;1088544;47;994;-82
2023/12/14 09:13:00;;;;;;;;;;;;;;;9.00;80.17;99695.97;1088329;46;1844;-81
2023/12/14 09:14:03;;;;;;;;;;;;;;;9.15;79.94;99697.22;1088440;46;957;-81
2023/12/14 09:15:11;;;;;;;;;;;;;;;9.13;80.03;99693.88;1088355;46;965;-80
2023/12/14 09:16:14;;;;;;;;;;;;;;;9.19;79.42;99690.59;1088364;47;960;-82
2023/12/14 09:17:15;;;;;;;;;;;;;;;9.15;79.95;99691.03;1088388;46;1247;-82
2023/12/14 09:18:20;;;;;;;;;;;;;;;9.28;79.33;99693.38;1088599;46;967;-80
2023/12/14 09:19:28;;;;;;;;;;;;;;;9.24;79.14;99698.19;1088485;54;959;-80
2023/12/14 09:20:32;;;;;;;;;;;;;;;9.24;79.60;99697.34;1088370;54;1077;-82
2023/12/14 09:21:35;;;;;;;;;;;;;;;9.28;79.48;99702.25;1088346;47;924;-81
2023/12/14 09:22:39;;;;;;;;;;;;;;;9.23;79.68;99709.00;1088377;47;1001;-81
2023/12/14 09:23:43;;;;;;;;;;;;;;;9.39;79.37;99706.56;1088396;47;1161;-82
2023/12/14 09:24:47;;;;;;;;;;;;;;;9.44;78.97;99700.78;1088443;47;989;-80
2023/12/14 09:25:48;;;;;;;;;;;;;;;9.52;78.81;99708.91;1088380;47;973;-82
2023/12/14 09:26:52;;;;;;;;;;;;;;;9.48;78.74;99705.69;1088230;47;1286;-82
2023/12/14 09:27:55;;;;;;;;;;;;;;;9.18;79.51;99714.75;1088386;47;988;-80
2023/12/14 09:28:59;;;;;;;;;;;;;;;9.16;79.77;99709.56;1088585;46;952;-81
2023/12/14 09:30:00;;;;;;;;;;;;;;;9.29;79.19;99717.28;1088281;46;960;-83
2023/12/14 09:31:03;;;;;;;;;;;;;;;9.32;79.50;99719.63;1088365;46;1037;-81
2023/12/14 09:32:05;;;;;;;;;;;;;;;9.38;79.09;99723.53;1088450;46;973;-81
2023/12/14 09:33:13;;;;;;;;;;;;;;;9.20;79.09;99732.31;1088298;54;1852;-80
2023/12/14 09:34:14;;;;;;;;;;;;;;;9.19;79.23;99727.94;1088265;47;952;-81
2023/12/14 09:35:18;;;;;;;;;;;;;;;9.16;79.04;99730.91;1088477;54;1118;-81
2023/12/14 09:36:18;;;;;;;;;;;;;;;9.27;79.07;99726.38;1088468;47;1112;-81
2023/12/14 09:37:36;;;;;;;;;;;;;;;9.13;79.32;99725.00;1088169;47;1443;-81
2023/12/14 09:38:47;;;;;;;;;;;;;;;9.19;78.91;99730.63;1088354;54;942;-81
2023/12/14 09:39:54;;;;;;;;;;;;;;;9.07;79.48;99730.91;1088441;47;1007;-81
2023/12/14 09:40:55;;;;;;;;;;;;;;;9.08;79.43;99732.59;1088344;46;934;-81
2023/12/14 09:42:05;;;;;;;;;;;;;;;9.23;78.99;99733.84;1088298;46;967;-81
2023/12/14 09:43:11;;;;;;;;;;;;;;;9.26;78.93;99735.41;1088399;54;980;-83
2023/12/14 09:44:15;;;;;;;;;;;;;;;9.38;78.83;99739.56;1088410;54;934;-80
2023/12/14 09:45:16;;;;;;;;;;;;;;;9.49;78.29;99742.06;1088520;54;1043;-82
2023/12/14 09:46:20;;;;;;;;;;;;;;;9.50;78.31;99741.06;1088471;47;1102;-81
2023/12/14 09:47:21;;;;;;;;;;;;;;;9.56;78.14;99744.13;1088343;47;994;-82
2023/12/14 09:48:31;;;;;;;;;;;;;;;9.55;78.34;99742.44;1088332;47;986;-81
2023/12/14 09:49:33;;;;;;;;;;;;;;;9.63;78.15;99742.59;1088506;47;957;-80
2023/12/14 09:50:37;;;;;;;;;;;;;;;9.62;78.07;99743.56;1088489;47;989;-81
2023/12/14 09:51:40;;;;;;;;;;;;;;;9.74;77.56;99754.91;1088387;54;1029;-81
2023/12/14 09:52:45;;;;;;;;;;;;;;;9.77;77.83;99751.94;1088308;54;1860;-82
2023/12/14 09:53:48;;;;;;;;;;;;;;;9.72;78.16;99749.72;1088373;47;983;-81
2023/12/14 09:54:54;;;;;;;;;;;;;;;9.52;77.95;99756.94;1088378;47;979;-81
2023/12/14 09:56:00;;;;;;;;;;;;;;;9.37;78.45;99759.22;1088101;54;965;-82
2023/12/14 09:57:07;;;;;;;;;;;;;;;9.57;77.89;99760.03;1088450;47;1363;-83
2023/12/14 09:58:10;;;;;;;;;;;;;;;9.64;77.81;99770.94;1088292;47;999;-81
2023/12/14 09:59:15;;;;;;;;;;;;;;;9.57;77.68;99760.03;1088321;47;955;-81
2023/12/14 10:00:32;;;;;;;;;;;;;;;9.68;77.66;99767.81;1088411;47;952;-82
2023/12/14 10:02:51;;;;;;;;;;;;;;;9.68;77.29;99769.66;1088409;47;973;-82
2023/12/14 10:04:06;;;;;;;;;;;;;;;9.56;77.23;99774.34;1088443;54;978;-79
2023/12/14 10:05:13;;;;;;;;;;;;;;;9.52;77.28;99778.28;1087645;47;1233;-80
2023/12/14 10:06:14;;;;;;;;;;;;;;;9.40;77.84;99769.59;1088294;47;939;-81
2023/12/14 10:07:16;;;;;;;;;;;;;;;9.50;77.55;99773.09;1088350;46;1163;-80
2023/12/14 10:08:20;;;;;;;;;;;;;;;9.63;77.12;99782.63;1088205;47;862;-81
2023/12/14 10:09:23;;;;;;;;;;;;;;;9.67;77.11;99779.53;1088273;46;998;-81
2023/12/14 10:10:31;;;;;;;;;;;;;;;9.68;76.89;99783.00;1088305;47;891;-80
2023/12/14 10:11:35;;;;;;;;;;;;;;;9.65;76.90;99773.47;1088175;54;1044;-79
2023/12/14 10:12:53;;;;;;;;;;;;;;;9.51;77.10;99782.78;1088233;47;935;-81
2023/12/14 10:13:54;;;;;;;;;;;;;;;9.53;77.32;99779.97;1088228;54;1012;-80
2023/12/14 10:15:00;;;;;;;;;;;;;;;9.51;77.55;99787.25;1088348;54;978;-81
2023/12/14 10:16:04;;;;;;;;;;;;;;;9.52;77.40;99780.94;1088488;47;989;-81
2023/12/14 10:17:16;;;;;;;;;;;;;;;9.59;77.01;99783.88;1088243;47;1394;-80
2023/12/14 10:18:31;;;;;;;;;;;;;;;9.48;77.63;99780.41;1088287;54;1011;-80
2023/12/14 10:19:32;;;;;;;;;;;;;;;9.46;77.64;99778.88;1088388;54;1034;-81
2023/12/14 10:20:36;;;;;;;;;;;;;;;9.58;77.23;99782.19;1088266;46;979;-80
2023/12/14 10:21:38;;;;;;;;;;;;;;;9.61;77.13;99782.75;1088223;54;921;-79
2023/12/14 10:22:41;;;;;;;;;;;;;;;9.71;76.98;99784.53;1088289;47;969;-82
2023/12/14 10:23:46;;;;;;;;;;;;;;;9.76;76.62;99783.13;1088288;47;984;-81
2023/12/14 10:24:50;;;;;;;;;;;;;;;9.87;76.56;99786.59;1088163;47;902;-81
2023/12/14 10:25:52;;;;;;;;;;;;;;;9.95;76.01;99786.69;1088258;47;991;-81
2023/12/14 10:27:05;;;;;;;;;;;;;;;9.95;75.94;99784.88;1088288;54;1322;-80
2023/12/14 10:28:09;;;;;;;;;;;;;;;10.03;75.83;99786.81;1088169;54;962;-81
2023/12/14 10:34:12;;;;;;;;;;;;;;;9.93;75.93;99797.53;1088361;46;921;-81
2023/12/14 10:35:41;;;;;;;;;;;;;;;;;;;;;
2023/12/14 10:38:23;;;;;;;;;;;;;;;9.66;76.50;99801.00;1088361;47;919;-81
2023/12/14 10:39:26;;;;;;;;;;;;;;;9.73;76.68;99804.75;1088488;47;997;-81
2023/12/14 10:40:31;;;;;;;;;;;;;;;9.73;76.50;99801.25;1088380;47;1035;-82
2023/12/14 10:41:34;;;;;;;;;;;;;;;9.74;76.44;99805.63;1088334;47;977;-81
2023/12/14 10:44:47;;;;;;;;;;;;;;;9.89;76.26;99808.66;1088277;47;1146;-82
2023/12/14 10:46:01;;;;;;;;;;;;;;;9.91;75.86;99809.38;1088375;46;997;-80
2023/12/14 10:51:21;;;;;;;;;;;;;;;10.07;75.45;99809.56;1088408;46;1075;-81
2023/12/14 10:52:39;;;;;;;;;;;;;;;10.07;75.17;99812.25;1088326;51;976;-81
2023/12/14 10:53:54;;;;;;;;;;;;;;;9.76;76.08;99807.16;1088223;47;1858;-82
2023/12/14 10:55:07;;;;;;;;;;;;;;;9.64;76.65;99813.63;1088254;54;1018;-81
2023/12/14 10:56:37;;;;;;;;;;;;;;;9.80;75.70;99810.38;1088315;54;1026;-81
2023/12/14 10:57:39;;;;;;;;;;;;;;;9.83;75.88;99818.91;1088194;54;985;-80
2023/12/14 10:58:49;;;;;;;;;;;;;;;9.87;75.53;99815.97;1088026;47;952;-81
2023/12/14 10:59:55;;;;;;;;;;;;;;;9.91;75.58;99814.72;1087942;47;1558;-80
2023/12/14 11:01:04;;;;;;;;;;;;;;;9.87;75.68;99818.63;1088076;46;1500;-80
2023/12/14 11:02:08;;;;;;;;;;;;;;;9.90;75.73;99810.34;1088144;47;1385;-81
2023/12/14 11:03:17;;;;;;;;;;;;;;;9.88;75.82;99820.31;1088169;47;1488;-81
2023/12/14 11:04:18;;;;;;;;;;;;;;;9.96;75.40;99810.59;1088186;47;1307;-81
2023/12/14 11:05:26;;;;;;;;;;;;;;;10.01;75.06;99810.16;1088214;54;1076;-81
2023/12/14 11:06:30;;;;;;;;;;;;;;;9.93;75.36;99812.72;1088523;54;1318;-80
2023/12/14 11:07:47;;;;;;;;;;;;;;;10.00;75.24;99819.16;1088435;47;1584;-80
2023/12/14 11:08:47;;;;;;;;;;;;;;;10.02;75.15;99816.34;1088415;47;1419;-81
2023/12/14 11:09:52;;;;;;;;;;;;;;;9.92;75.30;99816.38;1088633;47;1480;-82
2023/12/14 11:10:55;;;;;;;;;;;;;;;9.94;75.03;99819.72;1088619;54;1031;-81
2023/12/14 11:12:00;;;;;;;;;;;;;;;9.72;75.46;99816.44;1088602;54;1058;-81
2023/12/14 11:13:02;;;;;;;;;;;;;;;9.67;75.70;99824.03;1088504;54;1881;-81
2023/12/14 11:14:06;;;;;;;;;;;;;;;9.83;75.03;99824.25;1088438;54;1538;-82
2023/12/14 11:15:10;;;;;;;;;;;;;;;9.92;75.27;99829.75;1088387;47;1434;-82
2023/12/14 11:16:17;;;;;;;;;;;;;;;10.04;74.67;99828.56;1088403;54;1016;-80
2023/12/14 11:17:18;;;;;;;;;;;;;;;10.09;74.46;99833.44;1088381;54;1343;-82
2023/12/14 11:18:26;;;;;;;;;;;;;;;10.13;74.56;99835.69;1088406;47;1521;-81
2023/12/14 11:19:31;;;;;;;;;;;;;;;10.23;74.35;99829.44;1088369;47;1493;-80
2023/12/14 11:20:47;;;;;;;;;;;;;;;10.30;73.96;99830.53;1088458;47;1445;-80
2023/12/14 11:21:51;;;;;;;;;;;;;;;10.32;73.48;99833.91;1088374;47;1564;-81
2023/12/14 11:22:55;;;;;;;;;;;;;;;10.39;73.43;99837.69;1088471;54;1023;-81
2023/12/14 11:23:58;;;;;;;;;;;;;;;10.39;73.31;99839.53;1088426;47;1406;-83
2023/12/14 11:25:02;;;;;;;;;;;;;;;10.26;73.61;99843.34;1088464;54;1010;-80
2023/12/14 11:26:06;;;;;;;;;;;;;;;10.11;73.94;99847.50;1088368;47;1483;-82
2023/12/14 11:27:07;;;;;;;;;;;;;;;10.07;74.25;99849.63;1088307;47;1499;-80
2023/12/14 11:28:08;;;;;;;;;;;;;;;10.18;74.06;99855.78;1088355;47;1498;-81
2023/12/14 11:29:12;;;;;;;;;;;;;;;10.15;73.87;99848.91;1088407;47;1501;-80
2023/12/14 11:30:13;;;;;;;;;;;;;;;10.22;73.88;99854.47;1088238;47;1447;-80
2023/12/14 11:31:16;;;;;;;;;;;;;;;10.20;73.80;99851.97;1088430;54;1061;-80
2023/12/14 11:32:21;;;;;;;;;;;;;;;10.18;74.06;99851.25;1088334;47;1456;-80
2023/12/14 11:33:22;;;;;;;;;;;;;;;10.17;74.11;99852.25;1088368;54;1844;-81
2023/12/14 11:34:24;;;;;;;;;;;;;;;10.21;73.61;99850.13;1088296;47;1460;-80
2023/12/14 11:35:27;;;;;;;;;;;;;;;10.26;73.91;99851.38;1088357;47;1378;-81
2023/12/14 11:36:28;;;;;;;;;;;;;;;10.22;73.69;99857.16;1088257;47;1530;-81
2023/12/14 11:37:34;;;;;;;;;;;;;;;9.91;74.71;99862.75;1088359;47;1463;-80
2023/12/14 11:38:35;;;;;;;;;;;;;;;9.96;74.37;99863.16;1088361;47;1460;-81
2023/12/14 11:39:43;;;;;;;;;;;;;;;10.02;74.39;99865.25;1088274;47;1508;-81
2023/12/14 11:40:44;;;;;;;;;;;;;;;10.02;74.24;99865.25;1088275;47;1451;-81
2023/12/14 11:42:01;;;;;;;;;;;;;;;10.09;74.25;99866.38;1088448;54;1029;-79
2023/12/14 11:43:06;;;;;;;;;;;;;;;9.93;74.37;99866.97;1088204;47;1623;-81
2023/12/14 11:44:25;;;;;;;;;;;;;;;9.93;74.71;99871.44;1088378;54;1136;-83
2023/12/14 11:45:26;;;;;;;;;;;;;;;9.90;74.68;99872.59;1088358;54;1015;-80
2023/12/14 11:46:35;;;;;;;;;;;;;;;9.63;75.44;99881.38;1088321;47;1443;-81
2023/12/14 11:47:36;;;;;;;;;;;;;;;9.68;75.72;99876.44;1088319;54;1032;-80
2023/12/14 11:48:39;;;;;;;;;;;;;;;9.68;75.43;99874.59;1088382;54;985;-80
2023/12/14 11:49:40;;;;;;;;;;;;;;;9.64;75.55;99877.69;1088309;47;1483;-80
2023/12/14 11:50:45;;;;;;;;;;;;;;;9.68;75.11;99877.25;1088357;47;1499;-79
2023/12/14 11:51:46;;;;;;;;;;;;;;;9.61;75.31;99870.00;1088405;54;1074;-82
2023/12/14 11:52:50;;;;;;;;;;;;;;;9.56;75.81;99880.22;1088331;47;1645;-80
2023/12/14 11:53:51;;;;;;;;;;;;;;;9.37;76.18;99876.59;1088342;47;1840;-81
2023/12/14 11:54:56;;;;;;;;;;;;;;;9.32;76.31;99878.88;1088368;47;1013;-80
2023/12/14 11:55:56;;;;;;;;;;;;;;;9.26;76.52;99874.09;1088296;47;1348;-81
2023/12/14 11:57:00;;;;;;;;;;;;;;;9.18;77.11;99880.97;1088222;47;1873;-80
2023/12/14 11:58:01;;;;;;;;;;;;;;;9.20;77.09;99886.16;1088371;47;1449;-80
2023/12/14 11:59:04;;;;;;;;;;;;;;;9.39;76.34;99879.97;1088241;47;1423;-81
2023/12/14 12:00:06;;;;;;;;;;;;;;;9.52;75.84;99877.88;1088259;54;1067;-81
2023/12/14 12:01:16;;;;;;;;;;;;;;;9.28;76.73;99880.97;1088255;47;1496;-81
2023/12/14 12:02:26;;;;;;;;;;;;;;;9.25;76.98;99881.25;1088294;54;968;-80
2023/12/14 12:03:34;;;;;;;;;;;;;;;9.21;76.90;99882.50;1088219;47;1553;-80
2023/12/14 12:04:36;;;;;;;;;;;;;;;9.23;76.97;99887.72;1088313;54;974;-80
2023/12/14 12:05:41;;;;;;;;;;;;;;;9.37;76.39;99881.94;1087991;54;1183;-81
2023/12/14 12:06:42;;;;;;;;;;;;;;;9.51;75.89;99886.84;1088167;47;1542;-82
2023/12/14 12:07:45;;;;;;;;;;;;;;;9.41;76.29;99883.34;1088293;47;1014;-80
2023/12/14 12:08:46;;;;;;;;;;;;;;;9.39;75.89;99890.66;1088362;47;1048;-80
2023/12/14 12:09:50;;;;;;;;;;;;;;;9.51;76.00;99889.53;1088455;54;905;-80
2023/12/14 12:10:50;;;;;;;;;;;;;;;9.57;75.70;99889.94;1088209;47;991;-82
2023/12/14 12:11:53;;;;;;;;;;;;;;;9.50;75.45;99895.84;1088109;47;920;-80
2023/12/14 12:13:02;;;;;;;;;;;;;;;9.64;75.24;99896.38;1088296;54;952;-79
2023/12/14 12:14:03;;;;;;;;;;;;;;;9.43;75.58;99892.06;1088147;47;1852;-79
2023/12/14 12:15:07;;;;;;;;;;;;;;;9.44;75.42;99891.09;1088295;54;1072;-81
2023/12/14 12:16:14;;;;;;;;;;;;;;;9.27;76.05;99892.63;1088098;54;961;-81
2023/12/14 12:17:19;;;;;;;;;;;;;;;9.19;76.20;99898.66;1088198;47;1282;-83
2023/12/14 12:18:27;;;;;;;;;;;;;;;9.42;75.64;99901.06;1088081;54;1004;-82
2023/12/14 12:19:34;;;;;;;;;;;;;;;9.29;75.80;99895.13;1088358;54;947;-81
2023/12/14 12:20:34;;;;;;;;;;;;;;;9.50;74.93;99900.31;1088389;54;1195;-81
2023/12/14 12:21:39;;;;;;;;;;;;;;;9.57;74.81;99896.13;1088418;54;902;-81
2023/12/14 12:22:40;;;;;;;;;;;;;;;9.69;74.54;99902.16;1088401;47;958;-81
2023/12/14 12:23:45;;;;;;;;;;;;;;;9.71;74.16;99902.00;1088465;46;1214;-80
2023/12/14 12:24:46;;;;;;;;;;;;;;;9.67;74.36;99901.44;1088490;54;1030;-80
2023/12/14 12:25:49;;;;;;;;;;;;;;;9.63;74.87;99905.41;1088355;47;1014;-81
2023/12/14 12:26:50;;;;;;;;;;;;;;;9.73;74.28;99903.53;1088289;47;1371;-81
2023/12/14 12:27:54;;;;;;;;;;;;;;;9.79;74.17;99902.13;1088453;47;1013;-80
2023/12/14 12:28:54;;;;;;;;;;;;;;;9.75;73.95;99912.25;1088337;54;1000;-80
2023/12/14 12:29:55;;;;;;;;;;;;;;;9.46;74.47;99905.09;1088275;47;1493;-80
2023/12/14 12:30:59;;;;;;;;;;;;;;;9.51;74.06;99900.19;1088419;54;944;-81
2023/12/14 12:32:00;;;;;;;;;;;;;;;9.48;74.45;99902.31;1088271;47;900;-81
2023/12/14 12:33:11;;;;;;;;;;;;;;;9.66;73.54;99907.75;1088367;47;988;-81
2023/12/14 12:34:20;;;;;;;;;;;;;;;9.60;73.59;99900.34;1088261;46;1844;-82
2023/12/14 12:35:25;;;;;;;;;;;;;;;9.38;73.98;99904.13;1088316;54;915;-80
2023/12/14 12:36:25;;;;;;;;;;;;;;;9.47;73.83;99913.97;1088352;54;1330;-81
2023/12/14 12:37:29;;;;;;;;;;;;;;;9.50;73.67;99903.84;1088349;47;1001;-81
2023/12/14 12:38:32;;;;;;;;;;;;;;;9.54;73.40;99908.91;1088339;54;910;-81
2023/12/14 12:39:35;;;;;;;;;;;;;;;9.41;74.06;99914.50;1088355;47;879;-80
2023/12/14 12:40:39;;;;;;;;;;;;;;;9.52;73.86;99907.22;1088256;47;949;-82
2023/12/14 12:41:52;;;;;;;;;;;;;;;9.51;73.90;99910.88;1088856;46;1032;-81
2023/12/14 12:42:57;;;;;;;;;;;;;;;9.57;73.68;99914.81;1088381;54;909;-80
2023/12/14 12:44:05;;;;;;;;;;;;;;;9.50;74.06;99914.53;1088332;54;931;-80
2023/12/14 12:45:11;;;;;;;;;;;;;;;9.57;73.81;99913.94;1088362;47;954;-80
2023/12/14 12:46:14;;;;;;;;;;;;;;;9.56;73.91;99913.13;1088500;46;1057;-80
2023/12/14 12:47:15;;;;;;;;;;;;;;;9.68;73.61;99913.81;1088276;47;1207;-81
2023/12/14 12:48:21;;;;;;;;;;;;;;;9.51;73.96;99910.88;1088141;47;1039;-80
2023/12/14 12:49:31;;;;;;;;;;;;;;;9.59;73.69;99917.31;1088363;46;949;-80
2023/12/14 12:50:34;;;;;;;;;;;;;;;9.64;73.37;99915.06;1088150;46;890;-81
2023/12/14 12:51:37;;;;;;;;;;;;;;;9.75;73.20;99919.44;1088206;47;905;-82
2023/12/14 12:52:45;;;;;;;;;;;;;;;9.54;73.86;99919.59;1088159;47;942;-81
2023/12/14 12:53:46;;;;;;;;;;;;;;;9.74;73.55;99921.22;1088233;47;1845;-81
2023/12/14 12:54:50;;;;;;;;;;;;;;;9.64;73.27;99915.06;1088390;46;958;-80
2023/12/14 12:55:50;;;;;;;;;;;;;;;9.63;73.73;99918.75;1088162;54;975;-80
2023/12/14 12:57:00;;;;;;;;;;;;;;;9.38;74.30;99923.66;1088022;47;1360;-81
2023/12/14 12:58:06;;;;;;;;;;;;;;;9.59;73.81;99925.34;1088312;46;948;-81
2023/12/14 12:59:13;;;;;;;;;;;;;;;9.42;74.06;99926.88;1088396;47;962;-80
2023/12/14 13:00:15;;;;;;;;;;;;;;;9.59;73.75;99928.00;1088504;54;899;-81
2023/12/14 13:01:21;;;;;;;;;;;;;;;9.48;73.95;99924.50;1088635;54;1009;-81
2023/12/14 13:02:23;;;;;;;;;;;;;;;9.58;73.67;99932.50;1088420;47;949;-81
2023/12/14 13:04:47;;;;;;;;;;;;;;;9.66;73.48;99937.13;1088255;46;980;-80
2023/12/14 13:05:48;;;;;;;;;;;;;;;9.60;73.94;99935.03;1088097;46;1082;-81
2023/12/14 13:06:53;;;;;;;;;;;;;;;9.72;73.17;99939.25;1088285;54;1154;-81
2023/12/14 13:07:54;;;;;;;;;;;;;;;9.61;73.66;99936.72;1088462;46;913;-80
2023/12/14 13:08:58;;;;;;;;;;;;;;;9.75;73.23;99938.94;1088185;47;986;-80
2023/12/14 13:09:58;;;;;;;;;;;;;;;9.76;73.10;99939.81;1088208;47;992;-80
2023/12/14 13:11:05;;;;;;;;;;;;;;;9.70;73.38;99940.34;1088299;54;861;-80
2023/12/14 13:12:12;;;;;;;;;;;;;;;9.81;73.41;99942.88;1088232;47;950;-80
2023/12/14 13:13:14;;;;;;;;;;;;;;;9.89;72.94;99944.84;1088268;47;955;-81
2023/12/14 13:14:21;;;;;;;;;;;;;;;9.99;72.72;99943.00;1088119;47;1838;-81
2023/12/14 13:15:30;;;;;;;;;;;;;;;9.98;72.63;99950.16;1088190;47;920;-81
2023/12/14 13:16:34;;;;;;;;;;;;;;;9.82;73.20;99949.91;1088098;47;1180;-81
2023/12/14 13:17:35;;;;;;;;;;;;;;;9.75;73.47;99948.78;1088380;46;946;-81
2023/12/14 13:18:45;;;;;;;;;;;;;;;9.68;73.54;99948.50;1088318;47;952;-82
2023/12/14 13:19:54;;;;;;;;;;;;;;;9.87;72.71;99941.47;1088291;46;927;-80
2023/12/14 13:21:01;;;;;;;;;;;;;;;9.95;72.69;99944.25;1088185;54;993;-81
2023/12/14 13:22:04;;;;;;;;;;;;;;;10.03;72.52;99949.72;1088114;47;1018;-81
2023/12/14 13:23:13;;;;;;;;;;;;;;;10.14;72.13;99949.56;1088221;46;931;-81
2023/12/14 13:24:14;;;;;;;;;;;;;;;10.23;71.83;99942.53;1088163;54;921;-81
2023/12/14 13:25:19;;;;;;;;;;;;;;;10.14;72.29;99954.06;1088145;47;947;-81
2023/12/14 13:26:22;;;;;;;;;;;;;;;10.04;72.71;99961.25;1088352;47;910;-81
2023/12/14 13:27:25;;;;;;;;;;;;;;;9.91;72.67;99957.06;1088291;46;942;-82
2023/12/14 13:28:28;;;;;;;;;;;;;;;9.87;72.79;99955.63;1088231;54;1062;-81
2023/12/14 13:29:32;;;;;;;;;;;;;;;9.77;73.17;99958.34;1088167;46;867;-80
2023/12/14 13:30:38;;;;;;;;;;;;;;;9.91;72.75;99953.56;1088197;54;977;-81
2023/12/14 13:31:43;;;;;;;;;;;;;;;10.01;72.77;99962.41;1088274;46;1035;-80
2023/12/14 13:32:53;;;;;;;;;;;;;;;10.06;72.34;99962.78;1088143;47;943;-80
2023/12/14 13:34:09;;;;;;;;;;;;;;;10.00;72.89;99966.06;1088171;54;1893;-80
2023/12/14 13:35:19;;;;;;;;;;;;;;;9.95;72.83;99961.13;1088322;47;932;-81